Time;durP1;ratioP1;P1;durP2;ratioP2;P2;SDS_P1;SDS_P2;PMS_P1;PMS_P2;Temp;Humidity;BMP_temperature;BMP_pressure;BME280_temperature;BME280_humidity;BME280_pressure;Samples;Min_cycle;Max_cycle;Signal;HPM_P1;HPM_P2
2021/07/19 00:08:01;;;;;;;1.30;0.85;;;24.80;99.90;;;;;;20897933;28;20727;-75
2021/07/19 00:18:06;;;;;;;1.38;1.00;;;24.90;99.90;;;;;;20896536;28;20200;-73
2021/07/19 00:28:09;;;;;;;1.17;1.08;;;24.80;99.90;;;;;;20896118;28;20552;-76
2021/07/19 00:38:15;;;;;;;1.58;0.65;;;24.80;99.90;;;;;;20896955;28;20689;-74
2021/07/19 00:48:19;;;;;;;2.03;1.42;;;24.70;99.90;;;;;;20906951;28;20599;-73
2021/07/19 00:58:28;;;;;;;0.95;0.38;;;24.50;99.90;;;;;;20909661;28;20202;-74
2021/07/19 01:08:33;;;;;;;1.50;1.05;;;24.30;99.90;;;;;;20908862;28;20233;-74
2021/07/19 01:18:38;;;;;;;0.95;0.88;;;24.40;99.90;;;;;;20908859;28;20271;-75
2021/07/19 01:28:45;;;;;;;1.95;1.10;;;24.20;99.90;;;;;;20907600;28;20581;-74
2021/07/19 01:38:49;;;;;;;1.63;0.57;;;24.40;99.90;;;;;;20906628;28;20200;-74
2021/07/19 01:48:56;;;;;;;1.00;0.88;;;24.40;99.90;;;;;;20905216;28;20706;-74
2021/07/19 01:59:02;;;;;;;0.88;0.88;;;24.40;99.90;;;;;;20904866;28;20281;-73
2021/07/19 02:09:16;;;;;;;2.17;0.77;;;24.40;99.90;;;;;;20903645;28;20264;-74
2021/07/19 02:19:20;;;;;;;0.95;0.57;;;24.50;99.90;;;;;;20903981;28;20276;-74
2021/07/19 02:29:26;;;;;;;1.50;1.38;;;24.70;99.90;;;;;;20902758;28;20232;-75
2021/07/19 02:39:31;;;;;;;0.52;0.52;;;25.20;99.90;;;;;;20901743;28;20220;-75
2021/07/19 02:49:36;;;;;;;0.70;0.70;;;25.10;99.90;;;;;;20902350;28;20638;-74
2021/07/19 02:59:40;;;;;;;0.70;0.70;;;25.20;99.90;;;;;;20913247;22;20388;-73
2021/07/19 03:09:46;;;;;;;2.40;1.25;;;25.30;99.90;;;;;;20899153;28;20334;-73
2021/07/19 03:19:53;;;;;;;2.80;1.45;;;25.30;99.90;;;;;;20900307;28;20193;-72
2021/07/19 03:30:00;;;;;;;1.77;1.52;;;25.20;99.90;;;;;;20898666;28;20233;-73
2021/07/19 03:40:05;;;;;;;1.35;0.77;;;25.20;99.90;;;;;;20898931;28;20197;-74
2021/07/19 03:50:11;;;;;;;1.23;0.93;;;25.20;99.90;;;;;;20898393;28;20753;-73
2021/07/19 04:00:17;;;;;;;0.88;0.88;;;25.20;99.90;;;;;;20910742;22;20304;-75
2021/07/19 04:10:22;;;;;;;1.48;1.00;;;25.30;99.90;;;;;;20898492;28;20714;-74
2021/07/19 04:20:26;;;;;;;1.15;1.05;;;25.30;99.90;;;;;;20907101;28;20197;-73
2021/07/19 04:30:34;;;;;;;2.15;1.13;;;25.20;99.90;;;;;;20912506;28;20225;-73
2021/07/19 04:40:38;;;;;;;7.68;1.67;;;25.10;99.90;;;;;;20910603;28;20202;-73
2021/07/19 04:50:43;;;;;;;0.63;0.63;;;25.00;99.90;;;;;;20910031;28;20221;-73
2021/07/19 05:00:49;;;;;;;2.17;0.80;;;25.00;99.90;;;;;;20908749;28;20663;-73
2021/07/19 05:10:59;;;;;;;1.63;1.42;;;25.00;99.90;;;;;;20908110;28;20316;-74
2021/07/19 05:21:03;;;;;;;1.48;1.02;;;25.20;99.90;;;;;;20908059;28;20193;-74
2021/07/19 05:31:08;;;;;;;2.95;1.48;;;25.20;99.90;;;;;;20905261;28;20778;-74
2021/07/19 05:41:11;;;;;;;1.30;0.98;;;25.20;99.90;;;;;;20905175;28;20224;-75
2021/07/19 05:51:16;;;;;;;0.50;0.40;;;25.20;99.90;;;;;;20904709;28;20229;-74
2021/07/19 06:01:20;;;;;;;1.67;1.20;;;25.50;99.90;;;;;;20904657;28;20260;-72
2021/07/19 06:11:25;;;;;;;9.02;1.40;;;25.70;99.90;;;;;;20908380;28;20704;-72
2021/07/19 06:21:29;;;;;;;1.55;0.95;;;26.40;99.90;;;;;;20901176;28;20209;-74
2021/07/19 06:31:33;;;;;;;1.38;1.10;;;26.70;99.90;;;;;;20899337;28;20245;-71
2021/07/19 06:41:38;;;;;;;4.35;1.17;;;27.20;99.90;;;;;;20899276;28;20197;-73
2021/07/19 06:51:43;;;;;;;2.55;1.70;;;26.80;99.90;;;;;;20896395;28;20221;-73
2021/07/19 07:01:46;;;;;;;2.22;1.77;;;26.80;99.90;;;;;;20899953;28;20225;-73
2021/07/19 07:11:52;;;;;;;1.27;1.17;;;27.20;99.90;;;;;;20899212;28;20221;-69
2021/07/19 07:21:55;;;;;;;3.47;1.30;;;27.40;99.90;;;;;;20898212;28;20311;-74
2021/07/19 07:32:00;;;;;;;2.70;1.98;;;27.60;99.90;;;;;;20898090;28;20221;-67
2021/07/19 07:42:05;;;;;;;2.88;1.40;;;27.80;99.90;;;;;;20893345;28;20220;-73
2021/07/19 07:52:10;;;;;;;4.80;1.85;;;28.10;99.90;;;;;;20899975;28;20553;-71
2021/07/19 08:02:15;;;;;;;1.55;1.08;;;28.20;99.90;;;;;;20911463;28;20694;-73
2021/07/19 08:12:20;;;;;;;5.28;1.83;;;28.40;99.90;;;;;;20912691;28;20556;-75
2021/07/19 08:22:24;;;;;;;5.45;1.92;;;28.70;99.90;;;;;;20913113;28;20198;-77
2021/07/19 08:32:29;;;;;;;3.42;2.88;;;29.00;99.90;;;;;;20910781;28;20270;-77
2021/07/19 08:42:34;;;;;;;3.33;2.90;;;28.60;99.90;;;;;;20912389;28;20660;-77
2021/07/19 08:52:39;;;;;;;7.38;2.92;;;28.00;99.90;;;;;;20901435;28;20248;-76
2021/07/19 09:02:43;;;;;;;2.95;2.17;;;28.10;99.90;;;;;;20835181;28;20293;-75
2021/07/19 09:12:48;;;;;;;4.95;1.75;;;27.70;99.90;;;;;;20919187;28;20217;-74
2021/07/19 09:22:55;;;;;;;14.65;2.63;;;27.40;99.90;;;;;;20911727;28;20276;-72
2021/07/19 09:33:02;;;;;;;1.40;1.20;;;27.70;99.90;;;;;;20905971;28;20707;-78
2021/07/19 09:43:17;;;;;;;1.65;1.55;;;27.70;99.90;;;;;;20905060;28;20186;-73
2021/07/19 09:53:33;;;;;;;2.20;1.70;;;27.70;99.90;;;;;;20904287;28;20253;-72
2021/07/19 10:03:37;;;;;;;2.05;1.52;;;27.80;99.90;;;;;;20904112;28;20225;-72
2021/07/19 10:13:48;;;;;;;1.63;1.20;;;28.50;99.90;;;;;;20902083;28;20627;-70
2021/07/19 10:23:52;;;;;;;2.50;1.95;;;28.70;99.90;;;;;;20902404;28;20209;-71
2021/07/19 10:34:01;;;;;;;1.67;1.58;;;28.70;99.90;;;;;;20902925;28;20701;-71
2021/07/19 10:44:07;;;;;;;2.72;1.85;;;29.00;99.90;;;;;;20899469;28;20193;-73
2021/07/19 10:54:19;;;;;;;4.80;2.13;;;28.90;99.90;;;;;;20898447;28;20643;-73
2021/07/19 11:04:23;;;;;;;2.67;1.45;;;29.40;99.90;;;;;;20897366;28;20711;-72
2021/07/19 11:14:28;;;;;;;3.22;1.58;;;29.30;99.90;;;;;;20897712;28;20243;-75
2021/07/19 11:24:39;;;;;;;1.20;1.10;;;29.30;99.90;;;;;;20896221;28;20757;-72
2021/07/19 11:34:45;;;;;;;1.48;1.27;;;29.40;99.90;;;;;;20895977;28;20315;-72
2021/07/19 11:44:49;;;;;;;1.48;1.00;;;29.90;99.90;;;;;;20893689;28;20288;-71
2021/07/19 11:54:54;;;;;;;1.50;0.98;;;30.20;99.90;;;;;;20893991;28;20368;-73
2021/07/19 12:04:58;;;;;;;3.95;2.00;;;30.60;99.90;;;;;;20895166;28;20236;-72
2021/07/19 12:15:04;;;;;;;3.33;1.45;;;30.70;99.90;;;;;;20886441;28;20283;-69
2021/07/19 12:25:09;;;;;;;1.30;1.20;;;31.00;99.90;;;;;;20892991;28;20284;-69
2021/07/19 12:35:14;;;;;;;4.38;1.63;;;30.90;99.90;;;;;;20893267;28;20217;-72
2021/07/19 12:45:18;;;;;;;3.20;2.03;;;31.60;99.90;;;;;;20908274;28;20208;-70
2021/07/19 12:55:25;;;;;;;1.92;1.48;;;31.40;99.90;;;;;;20907876;28;20785;-70
2021/07/19 13:05:29;;;;;;;5.55;2.33;;;32.20;99.90;;;;;;20906372;28;20235;-69
2021/07/19 13:15:35;;;;;;;1.88;1.63;;;32.80;99.90;;;;;;20905634;28;20198;-70
2021/07/19 13:25:40;;;;;;;5.43;2.78;;;32.90;99.90;;;;;;20905271;28;20197;-70
2021/07/19 13:35:46;;;;;;;3.60;2.05;;;33.30;99.90;;;;;;20902969;28;20197;-71
2021/07/19 13:45:53;;;;;;;3.53;2.60;;;33.10;99.90;;;;;;20873848;28;20205;-73
2021/07/19 13:56:00;;;;;;;4.10;2.25;;;32.20;99.90;;;;;;20871223;28;20232;-71
2021/07/19 14:06:03;;;;;;;2.13;1.77;;;33.10;99.90;;;;;;20869609;28;20234;-70
2021/07/19 14:16:08;;;;;;;6.38;3.15;;;33.30;99.90;;;;;;20855182;28;20198;-71
2021/07/19 14:26:12;;;;;;;2.53;1.92;;;33.50;99.90;;;;;;20882977;28;20651;-71
2021/07/19 14:36:17;;;;;;;2.22;2.00;;;33.60;99.90;;;;;;20875550;28;20210;-73
2021/07/19 14:46:39;;;;;;;2.25;2.00;;;34.80;99.90;;;;;;20852547;28;20217;-70
2021/07/19 14:56:44;;;;;;;6.30;2.38;;;33.90;99.90;;;;;;20909628;28;20206;-73
2021/07/19 15:06:48;;;;;;;3.03;2.13;;;33.60;99.90;;;;;;20904346;28;20754;-72
2021/07/19 15:16:53;;;;;;;2.13;1.92;;;34.80;99.90;;;;;;20895360;28;20233;-73
2021/07/19 15:26:58;;;;;;;6.00;1.92;;;33.60;99.90;;;;;;20894418;28;20245;-69
2021/07/19 15:37:03;;;;;;;2.00;1.80;;;34.10;99.90;;;;;;20895041;28;20709;-73
2021/07/19 15:47:07;;;;;;;2.10;1.30;;;34.40;99.90;;;;;;20892493;28;20228;-74
2021/07/19 15:57:13;;;;;;;4.07;2.03;;;33.70;99.90;;;;;;20891960;28;20721;-77
2021/07/19 16:07:16;;;;;;;3.22;1.73;;;33.60;99.90;;;;;;20891824;28;20328;-74
2021/07/19 16:17:41;;;;;;;5.82;1.55;;;32.80;99.90;;;;;;20905090;28;20638;-73
2021/07/19 16:27:45;;;;;;;1.52;1.35;;;32.70;99.90;;;;;;20909433;28;20228;-73
2021/07/19 16:37:50;;;;;;;1.65;1.38;;;32.80;99.90;;;;;;20907114;28;20197;-74
2021/07/19 16:47:54;;;;;;;2.75;1.30;;;31.70;99.90;;;;;;20908561;28;20312;-74
2021/07/19 16:58:09;;;;;;;1.00;0.90;;;31.20;99.90;;;;;;20907712;28;20284;-72
2021/07/19 17:08:13;;;;;;;4.13;1.45;;;31.50;99.90;;;;;;20898627;28;20249;-73
2021/07/19 17:18:18;;;;;;;2.58;2.05;;;32.50;99.90;;;;;;20894094;28;20204;-71
2021/07/19 17:28:21;;;;;;;3.00;1.80;;;33.70;99.90;;;;;;20905260;28;20702;-72
2021/07/19 17:38:28;;;;;;;2.30;1.20;;;32.50;99.90;;;;;;20889531;28;20285;-72
2021/07/19 17:48:31;;;;;;;1.85;0.90;;;32.80;99.90;;;;;;20881588;28;20582;-72
2021/07/19 17:58:37;;;;;;;2.85;1.75;;;32.40;99.90;;;;;;20883635;28;20327;-75
2021/07/19 18:08:41;;;;;;;1.13;0.95;;;32.10;99.90;;;;;;20905357;28;20764;-77
2021/07/19 18:18:46;;;;;;;0.95;0.85;;;30.90;99.90;;;;;;20901138;28;20280;-69
2021/07/19 18:39:12;;;;;;;1.35;1.02;;;29.70;99.90;;;;;;20891128;28;20224;-74
2021/07/19 18:49:16;;;;;;;0.68;0.65;;;29.20;99.90;;;;;;20899392;28;20252;-75
2021/07/19 18:59:21;;;;;;;1.55;1.23;;;28.60;99.90;;;;;;20906545;28;20216;-78
2021/07/19 19:09:39;;;;;;;1.13;1.02;;;27.20;99.90;;;;;;20904212;28;20217;-75
2021/07/19 19:19:46;;;;;;;2.30;1.38;;;27.50;99.90;;;;;;20902833;28;20201;-77
2021/07/19 19:29:49;;;;;;;8.02;1.85;;;27.10;99.90;;;;;;20894276;28;20308;-78
2021/07/19 19:39:54;;;;;;;3.65;1.38;;;27.10;99.90;;;;;;20882556;28;20283;-76
2021/07/19 19:49:58;;;;;;;2.85;0.95;;;27.00;99.90;;;;;;20893313;28;20252;-76
2021/07/19 20:00:05;;;;;;;1.08;0.90;;;26.60;99.90;;;;;;20899949;28;20637;-76
2021/07/19 20:10:10;;;;;;;0.60;0.60;;;26.60;99.90;;;;;;20911443;28;20331;-75
2021/07/19 20:20:16;;;;;;;1.13;1.02;;;26.50;99.90;;;;;;20909974;28;20212;-76
2021/07/19 20:30:19;;;;;;;0.90;0.80;;;26.70;99.90;;;;;;20910043;28;20308;-74
2021/07/19 20:40:24;;;;;;;1.00;0.70;;;26.80;99.90;;;;;;20905632;28;20574;-75
2021/07/19 20:50:28;;;;;;;1.60;1.25;;;26.70;99.90;;;;;;20908346;28;20235;-73
2021/07/19 21:00:33;;;;;;;1.30;0.60;;;26.50;99.90;;;;;;20909117;28;20557;-73
2021/07/19 21:10:37;;;;;;;0.40;0.38;;;26.40;99.90;;;;;;20922352;28;20248;-75
2021/07/19 21:20:42;;;;;;;0.95;0.82;;;26.30;99.90;;;;;;20925395;28;20193;-73
2021/07/19 21:30:45;;;;;;;1.10;0.93;;;26.20;99.90;;;;;;20886545;28;20309;-77
2021/07/19 21:40:51;;;;;;;1.23;1.13;;;26.00;99.90;;;;;;20863462;28;20200;-76
2021/07/19 21:50:55;;;;;;;2.28;1.13;;;25.50;99.90;;;;;;20861700;28;20231;-74
2021/07/19 22:01:01;;;;;;;3.92;1.63;;;25.40;99.90;;;;;;20860287;28;20401;-79
2021/07/19 22:11:05;;;;;;;2.00;1.23;;;25.30;99.90;;;;;;20859451;28;20222;-80
2021/07/19 22:21:15;;;;;;;1.60;1.13;;;25.20;99.90;;;;;;20819714;28;20201;-76
2021/07/19 22:31:18;;;;;;;1.77;1.25;;;25.10;99.90;;;;;;20830190;28;20554;-74
2021/07/19 22:41:23;;;;;;;10.10;1.35;;;25.20;99.90;;;;;;20896214;28;20204;-75
2021/07/19 22:51:27;;;;;;;0.70;0.70;;;25.10;99.90;;;;;;20867299;28;20221;-76
2021/07/19 23:01:32;;;;;;;3.72;1.45;;;25.00;99.90;;;;;;20856037;28;20251;-75
2021/07/19 23:11:36;;;;;;;4.53;1.63;;;24.80;99.90;;;;;;20827466;28;20577;-75
2021/07/19 23:21:41;;;;;;;1.48;1.35;;;24.90;99.90;;;;;;20847063;28;20576;-73
2021/07/19 23:31:44;;;;;;;1.67;1.00;;;24.70;99.90;;;;;;20832899;28;20217;-74
2021/07/19 23:41:49;;;;;;;1.88;1.65;;;25.10;99.90;;;;;;20911080;28;20198;-75
2021/07/19 23:51:53;;;;;;;2.28;0.82;;;24.80;99.90;;;;;;20895661;28;20721;-74
